Time;durP1;ratioP1;P1;durP2;ratioP2;P2;SDS_P1;SDS_P2;PMS_P1;PMS_P2;Temp;Humidity;BMP_temperature;BMP_pressure;BME280_temperature;BME280_humidity;BME280_pressure;Samples;Min_cycle;Max_cycle;Signal;HPM_P1;HPM_P2
2022/08/19 00:01:57;;;;;;;84.28;77.22;;;;;;;20.86;100.00;100637.16;5032701;28;20135;-85
2022/08/19 00:04:29;;;;;;;76.70;70.00;;;;;;;20.90;100.00;100635.50;5029207;28;20398;-84
2022/08/19 00:07:01;;;;;;;71.60;65.40;;;;;;;21.11;100.00;100636.22;5034062;28;20060;-85
2022/08/19 00:09:30;;;;;;;82.85;75.57;;;;;;;20.87;100.00;100640.66;5033717;28;20053;-84
2022/08/19 00:12:15;;;;;;;79.97;73.28;;;;;;;21.13;100.00;100641.34;5019930;28;20192;-84
2022/08/19 00:14:44;;;;;;;76.13;69.00;;;;;;;21.01;100.00;100647.06;5022145;28;20053;-83
2022/08/19 00:17:17;;;;;;;75.70;69.05;;;;;;;21.04;100.00;100639.22;5025770;28;20041;-83
2022/08/19 00:19:50;;;;;;;73.78;67.50;;;;;;;21.02;100.00;100646.78;5030859;28;20098;-85
2022/08/19 00:22:26;;;;;;;79.95;73.25;;;;;;;20.98;100.00;100636.84;5033587;28;20123;-86
2022/08/19 00:24:59;;;;;;;87.70;80.35;;;;;;;20.98;100.00;100640.34;5025469;28;20088;-84
2022/08/19 00:27:30;;;;;;;77.22;70.57;;;;;;;20.82;100.00;100636.09;5014312;28;20046;-82
2022/08/19 00:29:58;;;;;;;69.22;63.08;;;;;;;20.58;100.00;100638.59;5015323;28;20052;-84
2022/08/19 00:32:40;;;;;;;79.05;72.75;;;;;;;20.29;100.00;100641.06;5014779;28;20085;-84
2022/08/19 00:35:18;;;;;;;84.05;77.65;;;;;;;20.50;100.00;100634.53;5025243;28;20046;-85
2022/08/19 00:37:48;;;;;;;68.18;62.17;;;;;;;20.29;100.00;100646.44;5026231;28;20045;-83
2022/08/19 00:40:26;;;;;;;77.18;70.57;;;;;;;20.38;100.00;100644.81;5020409;28;20054;-84
2022/08/19 00:42:54;;;;;;;84.53;77.88;;;;;;;20.32;100.00;100632.41;5014151;28;20050;-82
2022/08/19 00:45:25;;;;;;;86.28;79.18;;;;;;;20.48;100.00;100635.88;5021977;28;20478;-82
2022/08/19 00:47:54;;;;;;;88.18;80.88;;;;;;;20.68;100.00;100637.75;5026119;28;20068;-85
2022/08/19 00:50:22;;;;;;;72.50;66.25;;;;;;;20.70;100.00;100638.31;5032214;28;20056;-84
2022/08/19 00:52:52;;;;;;;83.85;76.72;;;;;;;20.71;100.00;100632.63;5024924;28;20119;-85
2022/08/19 00:55:22;;;;;;;84.45;77.40;;;;;;;20.62;100.00;100636.97;5019867;28;20053;-86
2022/08/19 00:58:00;;;;;;;84.18;77.10;;;;;;;20.61;100.00;100629.16;5015551;28;20053;-84
2022/08/19 01:00:32;;;;;;;84.60;77.75;;;;;;;20.75;100.00;100627.47;5022451;28;20054;-84
2022/08/19 01:03:01;;;;;;;92.97;85.85;;;;;;;20.66;100.00;100627.22;5026825;28;20072;-83
2022/08/19 01:05:44;;;;;;;82.47;75.80;;;;;;;20.65;100.00;100624.81;5028673;28;20122;-85
2022/08/19 01:08:12;;;;;;;61.80;56.25;;;;;;;20.14;100.00;100629.22;5029486;28;20053;-83
2022/08/19 01:10:44;;;;;;;84.97;78.20;;;;;;;20.47;100.00;100621.59;5021360;28;20042;-82
2022/08/19 01:13:15;;;;;;;60.85;54.45;;;;;;;19.93;100.00;100627.59;5032542;28;20045;-82
2022/08/19 01:15:46;;;;;;;66.25;59.80;;;;;;;19.98;100.00;100630.31;5015575;28;20049;-83
2022/08/19 01:18:16;;;;;;;66.82;60.75;;;;;;;19.80;100.00;100634.34;5022033;28;20049;-84
2022/08/19 01:20:45;;;;;;;74.05;67.18;;;;;;;20.00;100.00;100636.25;5033274;28;20057;-83
2022/08/19 01:23:43;;;;;;;89.72;82.53;;;;;;;20.27;100.00;100637.81;5026400;28;20049;-84
2022/08/19 01:26:39;;;;;;;66.07;60.17;;;;;;;20.34;100.00;100638.38;5021562;28;20053;-85
2022/08/19 01:29:09;;;;;;;60.53;54.92;;;;;;;20.18;100.00;100637.56;5030165;28;20056;-82
2022/08/19 01:31:36;;;;;;;60.88;55.38;;;;;;;20.04;100.00;100645.41;5025747;28;20053;-85
2022/08/19 01:34:04;;;;;;;66.53;60.33;;;;;;;20.31;100.00;100645.09;5027013;28;20136;-82
2022/08/19 01:36:36;;;;;;;60.47;54.47;;;;;;;19.61;100.00;100646.72;5036440;28;20056;-86
2022/08/19 01:39:06;;;;;;;;;;;;;;;19.74;100.00;100643.50;5024837;28;20045;-83
2022/08/19 01:41:34;;;;;;;56.40;51.10;;;;;;;19.44;100.00;100639.66;5022944;28;19932;-82
2022/08/19 01:44:03;;;;;;;63.25;57.13;;;;;;;19.68;100.00;100649.97;5034275;28;20064;-82
2022/08/19 01:46:43;;;;;;;61.13;55.58;;;;;;;19.83;100.00;100652.69;5023895;28;20041;-85
2022/08/19 01:49:11;;;;;;;64.72;59.33;;;;;;;19.82;100.00;100645.69;5036980;28;20053;-83
2022/08/19 01:51:40;;;;;;;72.93;66.97;;;;;;;19.95;100.00;100648.91;5030974;28;20404;-83
2022/08/19 01:54:08;;;;;;;67.60;61.92;;;;;;;20.00;100.00;100652.44;5022281;28;20042;-82
2022/08/19 01:57:00;;;;;;;62.45;56.65;;;;;;;19.60;100.00;100658.53;5022699;28;20049;-84
2022/08/19 01:59:28;;;;;;;60.77;54.87;;;;;;;19.25;100.00;100668.19;5025322;28;20053;-84
2022/08/19 02:01:55;;;;;;;64.32;58.30;;;;;;;19.33;100.00;100667.63;5156098;23;20511;-83
2022/08/19 02:04:40;;;;;;;66.85;60.25;;;;;;;19.55;100.00;100672.03;5055963;28;20053;-85
2022/08/19 02:07:07;;;;;;;72.15;65.85;;;;;;;19.78;100.00;100670.72;5062889;28;20481;-82
2022/08/19 02:09:36;;;;;;;81.18;74.13;;;;;;;19.87;100.00;100679.91;5052123;28;20106;-85
2022/08/19 02:12:12;;;;;;;75.65;68.65;;;;;;;19.85;100.00;100677.47;5059700;28;20060;-85
2022/08/19 02:14:45;;;;;;;76.38;69.85;;;;;;;-143.39;100.00;64013.03;5057207;28;20049;-83
2022/08/19 02:17:13;;;;;;;69.18;63.28;;;;;;;19.33;100.00;100669.53;5061339;28;20055;-83
2022/08/19 02:19:47;;;;;;;70.72;64.03;;;;;;;19.66;100.00;100669.09;5049914;28;20045;-85
2022/08/19 02:22:28;;;;;;;77.07;70.20;;;;;;;19.66;100.00;100669.09;5055443;28;20048;-83
2022/08/19 02:25:45;;;;;;;68.45;62.40;;;;;;;-143.39;100.00;64013.03;5052744;28;20119;-84
2022/08/19 02:28:14;;;;;;;82.53;75.43;;;;;;;-143.39;100.00;64013.03;5055607;28;20382;-84
2022/08/19 02:31:46;;;;;;;69.50;62.90;;;;;;;-143.39;100.00;64013.03;5071021;28;20374;-84
2022/08/19 02:35:17;;;;;;;75.00;67.88;;;;;;;-143.39;100.00;64013.03;5041216;28;20040;-86
2022/08/19 02:38:34;;;;;;;80.07;72.93;;;;;;;-143.39;100.00;64013.03;5055107;28;20045;-84
2022/08/19 02:42:04;;;;;;;73.30;66.70;;;;;;;-143.39;100.00;64013.03;5048885;28;20045;-87
2022/08/19 02:44:58;;;;;;;76.05;69.22;;;;;;;-143.39;100.00;64013.03;5054375;28;20053;-85
2022/08/19 02:47:38;;;;;;;68.85;62.55;;;;;;;-143.39;100.00;64013.03;5061123;28;20052;-83
2022/08/19 02:50:11;;;;;;;70.10;63.97;;;;;;;-143.39;100.00;64013.03;5064771;28;20052;-82
2022/08/19 02:52:39;;;;;;;;;;;;;;;-143.39;100.00;64013.03;5056448;28;20041;-82
2022/08/19 02:55:33;;;;;;;76.32;70.05;;;;;;;-143.39;100.00;64013.03;5055237;28;20281;-85
2022/08/19 02:58:23;;;;;;;70.43;64.63;;;;;;;-143.39;100.00;64013.03;5051793;28;20060;-87
2022/08/19 03:00:56;;;;;;;64.55;58.88;;;;;;;-143.39;100.00;64013.03;5054497;28;20059;-85
2022/08/19 03:03:24;;;;;;;64.05;58.30;;;;;;;-143.39;100.00;64013.03;5060798;28;20132;-83
2022/08/19 03:06:09;;;;;;;77.05;70.65;;;;;;;-143.39;100.00;64013.03;5058441;28;20065;-83
2022/08/19 03:08:48;;;;;;;59.72;54.53;;;;;;;-143.39;100.00;64013.03;5054031;28;20048;-84
2022/08/19 03:11:30;;;;;;;59.78;54.47;;;;;;;-143.39;100.00;64013.03;5056393;28;20045;-85
2022/08/19 03:14:23;;;;;;;71.95;65.85;;;;;;;-143.39;100.00;64013.03;5043337;28;20049;-84
2022/08/19 03:17:56;;;;;;;58.22;52.72;;;;;;;-143.39;100.00;64013.03;5048496;28;20041;-86
2022/08/19 03:20:29;;;;;;;55.03;49.97;;;;;;;-143.39;100.00;64013.03;5054497;28;20477;-85
2022/08/19 03:23:41;;;;;;;55.72;50.38;;;;;;;-143.39;100.00;64013.03;5061322;28;20045;-84
2022/08/19 03:27:14;;;;;;;58.03;52.67;;;;;;;-143.39;100.00;64013.03;5059681;28;20048;-84
2022/08/19 03:30:22;;;;;;;53.58;48.67;;;;;;;-143.39;100.00;64013.03;5058051;28;20067;-82
2022/08/19 03:33:02;;;;;;;58.35;52.92;;;;;;;-143.39;100.00;64013.03;5064025;28;20704;-85
2022/08/19 03:35:38;;;;;;;54.28;49.85;;;;;;;-143.39;100.00;64013.03;5055178;28;20131;-85
2022/08/19 03:38:07;;;;;;;50.58;46.15;;;;;;;-143.39;100.00;64013.03;5064212;28;20048;-84
2022/08/19 03:40:37;;;;;;;53.05;48.47;;;;;;;-143.39;100.00;64013.03;5056898;28;20052;-84
2022/08/19 03:43:05;;;;;;;51.92;47.28;;;;;;;19.13;100.00;100721.44;5056488;28;20049;-84
2022/08/19 03:45:34;;;;;;;49.70;44.95;;;;;;;19.27;100.00;100719.06;5055937;28;20049;-83
2022/08/19 03:48:00;;;;;;;48.83;44.35;;;;;;;18.99;100.00;100729.97;5054694;28;20049;-83
2022/08/19 03:50:33;;;;;;;54.17;49.45;;;;;;;19.53;100.00;100731.53;5050794;28;20064;-84
2022/08/19 03:53:02;;;;;;;55.55;51.05;;;;;;;19.68;100.00;100728.09;5044228;28;20121;-84
2022/08/19 03:55:30;;;;;;;56.42;51.53;;;;;;;19.79;100.00;100737.84;5048383;28;20049;-83
2022/08/19 03:58:04;;;;;;;67.40;61.78;;;;;;;19.67;100.00;100723.81;5050385;28;20507;-86
2022/08/19 04:00:32;;;;;;;60.75;55.55;;;;;;;19.68;100.00;100731.59;5053699;28;20467;-83
2022/08/19 04:03:00;;;;;;;55.08;50.15;;;;;;;19.62;100.00;100727.25;5052870;28;20060;-83
2022/08/19 04:05:28;;;;;;;54.03;49.33;;;;;;;20.03;100.00;100727.38;5054632;28;20068;-84
2022/08/19 04:07:58;;;;;;;52.95;48.47;;;;;;;20.51;100.00;100727.06;5056937;28;20072;-83
2022/08/19 04:10:26;;;;;;;50.38;46.28;;;;;;;20.90;100.00;100721.88;5057975;28;20045;-83
2022/08/19 04:12:52;;;;;;;48.25;43.97;;;;;;;21.06;100.00;100725.38;5057650;28;20056;-86
2022/08/19 04:15:20;;;;;;;50.10;45.50;;;;;;;20.69;100.00;100733.81;5058813;28;20152;-85
2022/08/19 04:17:54;;;;;;;52.67;47.97;;;;;;;20.61;100.00;100729.00;5052558;28;20123;-85
2022/08/19 04:20:22;;;;;;;57.55;52.58;;;;;;;20.58;100.00;100733.03;5051133;28;20132;-83
2022/08/19 04:22:49;;;;;;;55.38;50.83;;;;;;;20.33;100.00;100741.91;5053692;28;20052;-84
2022/08/19 04:25:16;;;;;;;54.47;49.67;;;;;;;20.44;100.00;100746.22;5052891;28;20041;-86
2022/08/19 04:27:46;;;;;;;55.97;51.40;;;;;;;20.55;100.00;100745.19;5057846;28;20113;-85
2022/08/19 04:30:15;;;;;;;59.67;54.63;;;;;;;20.64;100.00;100750.03;5057029;28;20060;-85
2022/08/19 04:32:44;;;;;;;55.75;50.90;;;;;;;20.58;100.00;100749.22;5053343;28;20410;-84
2022/08/19 04:35:18;;;;;;;58.83;53.72;;;;;;;20.67;100.00;100746.78;5046273;28;20045;-88
2022/08/19 04:37:47;;;;;;;57.13;52.28;;;;;;;20.87;100.00;100744.03;5052626;28;20044;-85
2022/08/19 04:43:02;;;;;;;51.00;46.88;;;;;;;20.64;100.00;100736.53;5039007;28;20072;-86
2022/08/19 04:45:29;;;;;;;55.65;51.25;;;;;;;20.79;100.00;100734.63;5065177;28;20044;-84
2022/08/19 04:48:02;;;;;;;55.85;50.63;;;;;;;21.23;100.00;100727.72;5058855;28;20044;-88
2022/08/19 04:50:30;;;;;;;68.50;63.47;;;;;;;21.31;100.00;100731.75;5053642;28;20053;-86
2022/08/19 04:52:59;;;;;;;54.75;50.25;;;;;;;21.41;100.00;100721.72;5053130;28;20135;-84
2022/08/19 04:55:26;;;;;;;55.53;50.90;;;;;;;21.45;100.00;100727.38;5054285;28;20437;-85
2022/08/19 04:57:53;;;;;;;53.03;48.22;;;;;;;21.60;100.00;100723.78;5054171;28;20111;-83
2022/08/19 05:00:21;;;;;;;52.08;47.30;;;;;;;21.81;100.00;100722.56;5053087;28;20410;-85
2022/08/19 05:02:50;;;;;;;51.97;46.83;;;;;;;21.87;100.00;100726.84;5052295;28;20056;-86
2022/08/19 05:05:18;;;;;;;49.85;45.80;;;;;;;21.90;100.00;100723.56;5063428;28;20045;-84
2022/08/19 05:07:47;;;;;;;49.55;45.15;;;;;;;21.85;100.00;100728.22;5055830;28;20044;-84
2022/08/19 05:10:16;;;;;;;51.63;47.20;;;;;;;22.12;100.00;100728.56;5058817;28;20041;-85
2022/08/19 05:12:49;;;;;;;52.80;48.40;;;;;;;22.10;100.00;100725.31;5060737;28;20045;-85
2022/08/19 05:15:16;;;;;;;51.83;47.53;;;;;;;22.21;100.00;100731.50;5070199;28;20132;-85
2022/08/19 05:22:31;;;;;;;49.95;45.00;;;;;;;22.26;100.00;100728.75;5064337;28;20052;-85
2022/08/19 05:23:16;;;;;;;49.47;45.08;;;;;;;22.48;100.00;100725.59;5067772;28;20071;-85
2022/08/19 05:25:45;;;;;;;46.78;42.55;;;;;;;22.63;100.00;100725.44;5061456;28;20481;-85
2022/08/19 05:28:11;;;;;;;45.03;41.53;;;;;;;22.59;100.00;100726.28;5072014;28;20436;-86
2022/08/19 05:30:40;;;;;;;46.95;42.88;;;;;;;22.73;100.00;100727.22;5065568;28;20057;-86
2022/08/19 05:33:07;;;;;;;49.47;45.85;;;;;;;22.79;100.00;100730.69;5061559;28;20076;-86
2022/08/19 05:35:34;;;;;;;46.72;42.92;;;;;;;22.99;100.00;100726.97;5052977;28;20523;-84
2022/08/19 05:38:01;;;;;;;44.17;40.38;;;;;;;23.16;100.00;100718.38;5058080;28;20067;-84
2022/08/19 05:40:53;;;;;;;46.20;42.55;;;;;;;23.28;100.00;100718.75;5055976;28;20060;-83
2022/08/19 05:43:36;;;;;;;48.47;44.17;;;;;;;23.38;100.00;100728.66;5056010;28;20044;-86
2022/08/19 05:46:22;;;;;;;49.70;45.72;;;;;;;23.43;100.00;100723.97;5056646;28;20124;-86
2022/08/19 05:48:51;;;;;;;48.20;44.83;;;;;;;23.45;100.00;100734.50;5043032;28;20402;-84
2022/08/19 05:51:18;;;;;;;45.20;41.70;;;;;;;23.64;100.00;100731.84;5061038;28;20048;-84
2022/08/19 05:53:46;;;;;;;46.40;42.75;;;;;;;23.69;100.00;100732.59;5057748;28;20045;-85
2022/08/19 05:56:17;;;;;;;44.50;41.20;;;;;;;24.00;100.00;100737.56;5056572;28;20041;-87
2022/08/19 05:58:46;;;;;;;46.58;43.17;;;;;;;24.10;100.00;100734.69;5052311;28;20052;-83
2022/08/19 06:01:16;;;;;;;46.20;42.25;;;;;;;24.38;100.00;100730.13;5060424;28;20049;-83
2022/08/19 06:03:43;;;;;;;45.40;41.60;;;;;;;24.34;100.00;100725.59;5060459;28;20052;-87
2022/08/19 06:06:12;;;;;;;46.35;42.67;;;;;;;24.58;100.00;100730.91;5057986;28;20044;-85
2022/08/19 06:08:39;;;;;;;47.92;44.17;;;;;;;24.67;100.00;100724.47;5066544;28;20114;-87
2022/08/19 06:11:15;;;;;;;46.42;42.92;;;;;;;25.02;100.00;100735.75;5073401;28;20386;-83
2022/08/19 06:13:42;;;;;;;41.78;38.80;;;;;;;25.05;100.00;100721.59;5060070;28;20053;-84
2022/08/19 06:16:11;;;;;;;40.42;37.40;;;;;;;25.18;100.00;100717.28;5057341;28;20075;-87
2022/08/19 06:18:37;;;;;;;42.25;38.75;;;;;;;25.42;100.00;100716.22;5062413;28;20045;-84
2022/08/19 06:21:04;;;;;;;39.85;36.67;;;;;;;25.22;100.00;100718.25;5061486;28;20045;-83
2022/08/19 06:23:31;;;;;;;39.30;36.30;;;;;;;25.68;100.00;100708.28;5061598;28;20382;-86
2022/08/19 06:25:58;;;;;;;39.38;36.28;;;;;;;25.80;100.00;100703.91;5059009;28;20079;-83
2022/08/19 06:28:25;;;;;;;38.05;34.70;;;;;;;26.03;100.00;100699.31;5056861;28;20072;-85
2022/08/19 06:30:52;;;;;;;36.10;33.22;;;;;;;26.17;100.00;100703.88;5056881;28;20056;-83
2022/08/19 06:33:21;;;;;;;34.90;31.95;;;;;;;26.50;100.00;100699.75;5057884;28;20045;-83
2022/08/19 06:35:48;;;;;;;34.15;31.00;;;;;;;26.65;100.00;100697.72;5060094;28;20059;-83
2022/08/19 06:38:14;;;;;;;33.90;30.98;;;;;;;26.98;100.00;100698.16;5061387;28;20578;-85
2022/08/19 06:40:42;;;;;;;34.05;31.45;;;;;;;27.14;100.00;100691.19;5063662;28;20049;-84
2022/08/19 06:43:08;;;;;;;34.92;32.13;;;;;;;27.38;100.00;100689.91;5058448;28;20052;-87
2022/08/19 06:45:38;;;;;;;33.53;31.05;;;;;;;27.46;100.00;100691.06;5061015;28;20049;-84
2022/08/19 06:48:05;;;;;;;35.00;32.00;;;;;;;27.59;100.00;100696.34;5057276;28;20053;-84
2022/08/19 06:50:33;;;;;;;33.95;31.27;;;;;;;27.78;100.00;100696.06;5056809;28;20056;-86
2022/08/19 06:53:00;;;;;;;34.15;31.45;;;;;;;28.05;100.00;100691.38;5056553;28;20102;-86
2022/08/19 06:55:29;;;;;;;35.83;32.95;;;;;;;28.16;100.00;100694.56;5056413;28;20049;-86
2022/08/19 06:57:55;;;;;;;36.67;33.13;;;;;;;28.29;100.00;100693.53;5055624;28;20052;-86
2022/08/19 07:00:22;;;;;;;32.80;30.55;;;;;;;28.66;100.00;100689.28;5069411;28;20071;-85
2022/08/19 07:02:50;;;;;;;34.13;31.70;;;;;;;28.68;100.00;100695.19;5056193;28;20053;-85
2022/08/19 07:05:17;;;;;;;35.38;32.72;;;;;;;28.94;100.00;100691.53;5060103;28;20144;-87
2022/08/19 07:07:45;;;;;;;34.47;31.88;;;;;;;28.88;100.00;100696.41;5062158;28;20052;-88
2022/08/19 07:10:12;;;;;;;35.45;32.75;;;;;;;29.19;100.00;100704.28;5060890;28;20374;-87
2022/08/19 07:12:40;;;;;;;36.85;33.95;;;;;;;29.15;100.00;100699.81;5055400;28;20041;-84
2022/08/19 07:15:09;;;;;;;34.95;32.33;;;;;;;28.96;100.00;100700.22;5062241;28;20128;-84
2022/08/19 07:17:37;;;;;;;36.03;33.42;;;;;;;29.31;100.00;100700.81;5060212;28;20049;-86
2022/08/19 07:20:06;;;;;;;34.97;32.35;;;;;;;29.30;100.00;100707.44;5060276;28;20052;-85
2022/08/19 07:22:33;;;;;;;34.00;31.42;;;;;;;29.54;100.00;100697.75;5057571;28;20393;-84
2022/08/19 07:25:03;;;;;;;33.75;31.17;;;;;;;29.76;100.00;100683.75;5054959;28;20060;-85
2022/08/19 07:27:30;;;;;;;34.55;31.98;;;;;;;29.70;100.00;100695.25;5058409;28;20080;-85
2022/08/19 07:29:57;;;;;;;37.00;34.40;;;;;;;29.61;100.00;100695.28;5060324;28;20068;-83
2022/08/19 07:32:25;;;;;;;35.65;33.00;;;;;;;29.69;100.00;100699.91;5060987;28;20055;-85
2022/08/19 07:34:52;;;;;;;38.67;35.45;;;;;;;29.67;100.00;100697.50;5060687;28;20053;-86
2022/08/19 07:37:19;;;;;;;36.80;33.70;;;;;;;29.82;100.00;100698.03;5058104;28;20401;-84
2022/08/19 07:39:46;;;;;;;37.38;34.65;;;;;;;29.76;100.00;100700.16;5057103;28;20048;-85
2022/08/19 07:42:14;;;;;;;38.47;35.45;;;;;;;30.05;100.00;100706.66;5048710;28;20123;-84
2022/08/19 07:44:42;;;;;;;37.88;34.42;;;;;;;29.76;100.00;100696.63;5053336;28;20060;-87
2022/08/19 07:47:15;;;;;;;38.15;34.95;;;;;;;29.88;100.00;100699.41;5062270;28;20069;-87
2022/08/19 07:49:43;;;;;;;37.03;33.92;;;;;;;29.99;100.00;100708.81;5054133;28;20044;-83
2022/08/19 07:52:13;;;;;;;36.85;33.83;;;;;;;30.16;100.00;100699.59;5050285;28;20111;-85
2022/08/19 07:54:40;;;;;;;35.72;33.05;;;;;;;29.92;100.00;100700.34;5052991;28;20056;-83
2022/08/19 07:57:08;;;;;;;32.78;29.75;;;;;;;29.96;100.00;100712.22;5054103;28;20045;-87
2022/08/19 07:59:37;;;;;;;31.83;29.42;;;;;;;29.68;100.00;100711.97;5044998;28;20057;-83
2022/08/19 08:02:06;;;;;;;35.25;32.75;;;;;;;29.82;100.00;100703.50;5051725;28;20044;-87
2022/08/19 08:10:29;;;;;;;35.50;32.92;;;;;;;30.23;100.00;100701.81;5056319;28;20539;-87
2022/08/19 08:13:00;;;;;;;37.88;35.25;;;;;;;30.79;100.00;100696.66;5050236;28;20049;-87
2022/08/19 08:15:28;;;;;;;35.45;32.65;;;;;;;29.86;100.00;100694.25;5051152;28;20056;-86
2022/08/19 08:17:57;;;;;;;34.83;32.22;;;;;;;30.30;100.00;100686.44;5055549;28;20045;-83
2022/08/19 08:20:34;;;;;;;33.35;30.92;;;;;;;29.65;100.00;100709.91;5056445;28;20136;-85
2022/08/19 08:23:25;;;;;;;37.90;35.38;;;;;;;30.36;100.00;100689.75;5053487;28;20049;-87
2022/08/19 08:25:55;;;;;;;39.10;36.00;;;;;;;30.93;100.00;100686.16;5053447;28;20115;-84
2022/08/19 08:28:25;;;;;;;36.30;33.20;;;;;;;31.01;100.00;100693.44;5058927;28;20807;-84
2022/08/19 08:30:55;;;;;;;38.20;35.70;;;;;;;30.91;100.00;100688.41;5051839;28;20049;-84
2022/08/19 08:33:24;;;;;;;38.63;35.80;;;;;;;31.20;100.00;100683.81;5056419;28;20103;-83
2022/08/19 08:35:52;;;;;;;39.80;36.83;;;;;;;30.87;100.00;100690.25;5053013;28;20060;-83
2022/08/19 08:38:36;;;;;;;36.47;34.08;;;;;;;31.11;100.00;100686.69;5053496;28;20080;-87
2022/08/19 08:41:20;;;;;;;35.20;32.80;;;;;;;31.00;100.00;100691.03;5053513;28;20057;-83
2022/08/19 08:43:59;;;;;;;37.03;33.80;;;;;;;31.41;100.00;100689.97;5053534;28;20143;-87
2022/08/19 08:46:40;;;;;;;35.58;32.80;;;;;;;31.45;100.00;100690.06;5053237;28;20053;-86
2022/08/19 08:49:21;;;;;;;44.78;41.75;;;;;;;31.11;100.00;100686.69;5049712;28;20052;-85
2022/08/19 08:51:53;;;;;;;46.65;43.28;;;;;;;31.80;100.00;100687.53;5056882;28;20080;-84
2022/08/19 08:54:33;;;;;;;45.35;42.17;;;;;;;31.59;100.00;100689.66;5052718;28;20049;-85
2022/08/19 08:57:20;;;;;;;43.88;40.95;;;;;;;30.79;98.43;100685.69;5053415;28;20060;-84
2022/08/19 08:59:52;;;;;;;50.08;46.53;;;;;;;31.74;100.00;100690.84;5035089;28;20049;-85
2022/08/19 09:02:26;;;;;;;47.35;44.40;;;;;;;30.52;100.00;100685.19;5049553;28;20429;-83
2022/08/19 09:04:56;;;;;;;48.33;45.03;;;;;;;31.19;100.00;100683.00;5054012;28;20405;-86
2022/08/19 09:07:31;;;;;;;40.35;37.45;;;;;;;31.60;94.95;100680.28;5052891;28;20053;-84
2022/08/19 09:10:26;;;;;;;40.63;38.03;;;;;;;30.80;100.00;100681.78;5053433;28;20049;-83
2022/08/19 09:13:05;;;;;;;41.05;38.33;;;;;;;31.44;100.00;100683.00;5051884;28;20553;-84
2022/08/19 09:15:43;;;;;;;37.92;35.17;;;;;;;31.16;98.98;100685.63;5041716;28;20050;-86
2022/08/19 09:18:12;;;;;;;40.90;38.10;;;;;;;31.92;99.14;100683.94;5047496;28;20084;-87
2022/08/19 09:20:48;;;;;;;39.50;36.60;;;;;;;32.14;92.45;100677.88;5052600;28;20049;-87
2022/08/19 09:23:15;;;;;;;43.08;39.90;;;;;;;32.67;86.65;100683.13;5048362;28;20108;-84
2022/08/19 09:25:44;;;;;;;40.20;37.40;;;;;;;32.34;81.73;100686.19;5052094;28;20049;-86
2022/08/19 09:28:11;;;;;;;42.33;39.22;;;;;;;32.30;89.70;100679.81;5052989;28;20053;-85
2022/08/19 09:30:49;;;;;;;38.40;35.70;;;;;;;31.96;86.36;100686.81;5052732;28;20049;-84
2022/08/19 09:33:20;;;;;;;41.85;38.85;;;;;;;33.00;79.49;100679.19;5051948;28;20048;-86
2022/08/19 09:35:47;;;;;;;37.53;34.97;;;;;;;32.48;81.03;100678.34;5053362;28;20068;-86
2022/08/19 09:38:14;;;;;;;43.10;39.72;;;;;;;32.75;79.20;100679.38;5054642;28;20474;-86
2022/08/19 09:40:41;;;;;;;37.38;34.47;;;;;;;33.06;78.84;100672.25;5048700;28;20401;-83
2022/08/19 09:43:10;;;;;;;37.47;34.58;;;;;;;33.48;74.02;100668.81;5051904;28;20049;-86
2022/08/19 09:45:43;;;;;;;42.15;39.25;;;;;;;33.37;75.49;100673.28;5052293;28;20076;-85
2022/08/19 09:48:11;;;;;;;41.42;38.17;;;;;;;32.23;92.06;100669.47;5048945;28;20071;-87
2022/08/19 09:50:51;;;;;;;40.00;36.80;;;;;;;32.15;80.62;100671.22;5056412;28;20049;-86
2022/08/19 09:53:27;;;;;;;40.80;37.65;;;;;;;32.36;83.11;100665.47;5053291;28;20057;-86
2022/08/19 09:55:55;;;;;;;40.50;37.70;;;;;;;32.43;80.86;100664.03;5056392;28;20044;-83
2022/08/19 09:58:27;;;;;;;40.47;37.58;;;;;;;32.08;83.32;100662.00;5056507;28;20126;-84
2022/08/19 10:00:54;;;;;;;40.97;37.97;;;;;;;32.42;86.48;100657.75;5055732;28;20126;-86
2022/08/19 10:03:40;;;;;;;42.28;39.10;;;;;;;33.00;81.02;100652.47;5061396;28;20045;-85
2022/08/19 10:06:09;;;;;;;43.15;40.10;;;;;;;33.65;72.63;100645.53;5056524;28;20124;-84
2022/08/19 10:08:39;;;;;;;44.80;41.53;;;;;;;32.04;76.14;100650.91;5048284;28;20115;-83
2022/08/19 10:11:10;;;;;;;42.83;39.95;;;;;;;32.66;83.14;100645.00;5048258;28;20041;-83
2022/08/19 10:13:41;;;;;;;42.00;39.22;;;;;;;31.02;90.61;100645.69;5055576;28;20052;-84
2022/08/19 10:16:11;;;;;;;42.05;39.08;;;;;;;32.97;79.29;100644.91;5055997;28;20064;-83
2022/08/19 10:19:00;;;;;;;46.33;43.33;;;;;;;32.03;80.45;100641.09;5055651;28;20045;-86
2022/08/19 10:21:42;;;;;;;42.83;39.78;;;;;;;32.74;83.97;100633.00;5056899;28;20052;-85
2022/08/19 10:24:10;;;;;;;42.33;39.45;;;;;;;33.29;71.39;100636.59;5054210;28;20049;-84
2022/08/19 10:26:47;;;;;;;43.55;40.42;;;;;;;33.32;71.32;100635.06;5055916;28;20087;-87
2022/08/19 10:29:15;;;;;;;41.00;38.10;;;;;;;33.94;66.91;100628.38;5039067;28;20045;-83
2022/08/19 10:31:44;;;;;;;43.83;40.83;;;;;;;34.31;72.10;100629.81;5055591;28;20139;-84
2022/08/19 10:34:11;;;;;;;42.25;38.70;;;;;;;34.04;72.68;100631.72;5058147;28;20049;-84
2022/08/19 10:36:38;;;;;;;43.08;39.47;;;;;;;33.25;68.27;100639.22;5055367;28;20045;-85
2022/08/19 10:39:12;;;;;;;43.97;40.88;;;;;;;32.03;77.29;100632.03;5053495;28;20140;-84
2022/08/19 10:41:53;;;;;;;45.65;42.08;;;;;;;33.17;71.41;100632.00;5064580;28;20066;-86
2022/08/19 10:44:21;;;;;;;44.78;41.38;;;;;;;34.34;66.00;100626.31;5053393;28;20048;-85
2022/08/19 10:46:49;;;;;;;42.53;39.03;;;;;;;33.49;69.38;100626.34;5055433;28;20118;-83
2022/08/19 10:52:36;;;;;;;50.53;46.90;;;;;;;33.88;64.04;100621.59;5055101;28;20191;-85
2022/08/19 10:57:52;;;;;;;38.17;34.97;;;;;;;33.95;62.15;100618.97;5054688;28;20056;-84
2022/08/19 11:00:20;;;;;;;41.95;38.60;;;;;;;33.84;67.25;100619.94;5070874;28;20182;-84
2022/08/19 11:02:47;;;;;;;42.38;38.97;;;;;;;34.07;66.86;100615.28;5060376;28;20060;-86
2022/08/19 11:05:14;;;;;;;44.20;40.70;;;;;;;33.75;71.44;100612.72;5048541;28;20409;-87
2022/08/19 11:07:41;;;;;;;44.65;40.72;;;;;;;33.32;73.50;100618.56;5057461;28;20048;-86
2022/08/19 11:10:20;;;;;;;41.08;37.75;;;;;;;32.75;73.29;100618.09;5059112;28;20118;-86
2022/08/19 11:13:00;;;;;;;45.53;41.42;;;;;;;34.46;58.81;100606.81;5055137;28;20044;-85
2022/08/19 11:15:28;;;;;;;42.53;39.13;;;;;;;33.67;54.66;100605.47;5055218;28;20080;-85
2022/08/19 11:17:57;;;;;;;43.05;39.75;;;;;;;33.30;65.32;100600.44;5055210;28;20060;-86
2022/08/19 11:20:25;;;;;;;44.10;40.80;;;;;;;33.37;61.24;100597.00;5055249;28;20053;-84
2022/08/19 11:22:59;;;;;;;43.33;39.83;;;;;;;33.37;66.11;100601.72;5053886;28;20531;-85
2022/08/19 11:25:28;;;;;;;42.28;38.83;;;;;;;34.06;62.81;100591.63;5047666;28;20053;-84
2022/08/19 11:27:56;;;;;;;34.45;31.35;;;;;;;34.64;61.62;100599.63;5054577;28;20045;-85
2022/08/19 11:30:23;;;;;;;35.08;32.38;;;;;;;35.25;54.99;100594.94;5056878;28;20497;-83
2022/08/19 11:32:50;;;;;;;34.90;32.20;;;;;;;35.48;51.19;100575.44;5051518;28;20049;-83
2022/08/19 11:35:29;;;;;;;35.65;32.90;;;;;;;34.94;55.39;100584.25;5054655;28;20057;-85
2022/08/19 11:38:21;;;;;;;37.47;34.47;;;;;;;36.00;49.09;100578.31;5050018;28;20053;-87
2022/08/19 11:40:57;;;;;;;37.03;34.13;;;;;;;36.12;50.06;100575.28;5051453;28;20052;-84
2022/08/19 11:43:30;;;;;;;36.25;33.15;;;;;;;36.10;45.47;100576.81;5051033;28;20811;-87
2022/08/19 11:46:07;;;;;;;37.92;35.00;;;;;;;34.91;51.19;100573.97;5050505;28;20045;-87
2022/08/19 11:48:34;;;;;;;35.65;33.00;;;;;;;34.79;48.97;100575.78;5054802;28;20472;-83